Time;durP1;ratioP1;P1;durP2;ratioP2;P2;SDS_P1;SDS_P2;PMS_P1;PMS_P2;Temp;Humidity;BMP_temperature;BMP_pressure;BME280_temperature;BME280_humidity;BME280_pressure;Samples;Min_cycle;Max_cycle;Signal;HPM_P1;HPM_P2
2022/10/29 00:00:38;;;;;;;20.73;13.83;;;12.50;99.90;;;;;;4967565;28;20200;-83
2022/10/29 00:03:05;;;;;;;15.17;13.77;;;12.50;99.90;;;;;;4969574;28;20203;-83
2022/10/29 00:05:32;;;;;;;19.50;14.60;;;12.50;99.90;;;;;;4966966;28;20234;-83
2022/10/29 00:08:00;;;;;;;15.17;13.63;;;12.50;99.90;;;;;;4966323;28;20281;-83
2022/10/29 00:10:27;;;;;;;14.27;12.87;;;12.50;99.90;;;;;;4948873;28;20197;-82
2022/10/29 00:12:54;;;;;;;14.77;13.40;;;12.50;99.90;;;;;;4968513;28;20819;-83
2022/10/29 00:15:22;;;;;;;14.20;12.80;;;12.60;99.90;;;;;;4953331;28;20690;-83
2022/10/29 00:17:50;;;;;;;13.47;12.27;;;12.60;99.90;;;;;;4943671;28;20821;-82
2022/10/29 00:20:19;;;;;;;13.83;12.40;;;12.70;99.90;;;;;;4967656;28;20893;-82
2022/10/29 00:22:46;;;;;;;14.67;12.93;;;12.70;99.90;;;;;;4971868;28;20205;-83
2022/10/29 00:25:13;;;;;;;15.80;13.30;;;12.60;99.90;;;;;;4952696;28;20206;-83
2022/10/29 00:27:40;;;;;;;15.33;13.73;;;12.60;99.90;;;;;;4952407;28;20222;-82
2022/10/29 00:30:08;;;;;;;14.73;13.23;;;12.60;99.90;;;;;;4952299;28;20564;-83
2022/10/29 00:32:35;;;;;;;14.60;13.20;;;12.50;99.90;;;;;;4949191;28;20629;-82
2022/10/29 00:35:03;;;;;;;15.23;13.63;;;12.50;99.90;;;;;;4949112;29;20264;-82
2022/10/29 00:37:30;;;;;;;18.37;13.73;;;12.50;99.90;;;;;;4970338;28;20194;-83
2022/10/29 00:39:57;;;;;;;15.10;13.57;;;12.40;99.90;;;;;;4973220;28;20221;-82
2022/10/29 00:42:23;;;;;;;14.50;12.90;;;12.30;99.90;;;;;;4952213;28;20261;-82
2022/10/29 00:44:50;;;;;;;13.83;12.43;;;12.30;99.90;;;;;;4956503;28;20208;-83
2022/10/29 00:47:21;;;;;;;13.07;11.90;;;12.20;99.90;;;;;;4957555;28;20233;-82
2022/10/29 00:49:51;;;;;;;13.60;12.37;;;12.30;99.90;;;;;;4948496;28;20220;-82
2022/10/29 00:52:22;;;;;;;13.10;12.00;;;12.30;99.90;;;;;;4957619;28;20671;-83
2022/10/29 00:54:50;;;;;;;13.07;11.40;;;12.30;99.90;;;;;;4955045;28;20204;-83
2022/10/29 00:57:25;;;;;;;13.73;12.40;;;12.30;99.90;;;;;;4969074;28;20201;-83
2022/10/29 00:59:52;;;;;;;12.53;11.33;;;12.20;99.90;;;;;;4968975;28;20226;-82
2022/10/29 01:02:21;;;;;;;12.43;11.13;;;12.20;99.90;;;;;;4951632;28;20210;-82
2022/10/29 01:04:49;;;;;;;15.00;11.57;;;12.20;99.90;;;;;;4953948;28;20202;-82
2022/10/29 01:07:16;;;;;;;13.27;11.57;;;12.20;99.90;;;;;;4973489;28;20271;-82
2022/10/29 01:09:44;;;;;;;17.20;11.77;;;12.20;99.90;;;;;;4951954;28;20251;-82
2022/10/29 01:12:34;;;;;;;15.57;11.90;;;12.20;99.90;;;;;;4956018;28;20208;-83
2022/10/29 01:15:10;;;;;;;13.53;11.33;;;12.20;99.90;;;;;;4956294;28;20223;-83
2022/10/29 01:17:47;;;;;;;13.77;11.87;;;12.20;99.90;;;;;;4959566;28;20200;-82
2022/10/29 01:20:57;;;;;;;11.93;10.90;;;12.20;99.90;;;;;;4968413;28;20227;-82
2022/10/29 01:24:11;;;;;;;12.77;11.60;;;12.30;99.90;;;;;;4968341;28;20686;-82
2022/10/29 01:27:08;;;;;;;12.13;11.10;;;12.30;99.90;;;;;;4952300;28;20225;-82
2022/10/29 01:29:55;;;;;;;12.47;11.30;;;12.30;99.90;;;;;;4972027;28;20263;-83
2022/10/29 01:32:30;;;;;;;12.60;11.27;;;12.30;99.90;;;;;;4969595;28;21017;-83
2022/10/29 01:35:03;;;;;;;12.43;11.30;;;12.40;99.90;;;;;;4968626;28;20246;-82
2022/10/29 01:37:38;;;;;;;12.43;11.20;;;12.40;99.90;;;;;;4959202;28;20254;-83
2022/10/29 01:40:10;;;;;;;12.53;11.20;;;12.40;99.90;;;;;;4949294;28;20272;-83
2022/10/29 01:42:39;;;;;;;12.57;11.53;;;12.50;99.90;;;;;;4953251;28;20259;-82
2022/10/29 01:45:13;;;;;;;12.40;11.10;;;12.50;99.90;;;;;;4955550;28;20321;-83
2022/10/29 01:47:44;;;;;;;12.30;11.10;;;12.50;99.90;;;;;;4952352;28;20225;-83
2022/10/29 01:50:15;;;;;;;16.23;11.77;;;12.50;99.90;;;;;;4950698;28;20232;-83
2022/10/29 01:52:43;;;;;;;12.97;11.67;;;12.50;99.90;;;;;;4949348;28;20209;-83
2022/10/29 01:55:10;;;;;;;11.70;10.80;;;12.50;99.90;;;;;;4972389;28;20252;-83
2022/10/29 01:57:38;;;;;;;12.60;11.43;;;12.50;99.90;;;;;;4951101;28;20209;-83
2022/10/29 02:00:08;;;;;;;9.57;8.00;;;12.60;99.90;;;;;;4950100;28;20219;-82
2022/10/29 02:02:54;;;;;;;8.07;7.27;;;12.50;99.90;;;;;;4965412;28;20252;-83
2022/10/29 02:05:28;;;;;;;11.37;10.23;;;12.60;99.90;;;;;;4972477;28;20197;-83
2022/10/29 02:07:59;;;;;;;10.07;8.87;;;12.60;99.90;;;;;;4971623;28;20221;-83
2022/10/29 02:10:31;;;;;;;12.20;11.13;;;12.50;99.90;;;;;;4968232;28;20571;-83
2022/10/29 02:12:59;;;;;;;10.70;7.57;;;12.50;99.90;;;;;;4971860;28;20232;-83
2022/10/29 02:15:33;;;;;;;11.50;9.33;;;12.50;99.90;;;;;;4950546;28;20204;-83
2022/10/29 02:18:02;;;;;;;9.90;9.00;;;12.40;99.90;;;;;;4950653;28;20199;-82
2022/10/29 02:20:30;;;;;;;11.20;8.20;;;12.30;99.90;;;;;;4966504;28;20194;-82
2022/10/29 02:22:57;;;;;;;10.57;9.03;;;12.30;99.90;;;;;;4951013;29;20202;-83
2022/10/29 02:25:24;;;;;;;7.63;6.77;;;12.30;99.90;;;;;;4955158;28;20596;-83
2022/10/29 02:27:51;;;;;;;8.07;6.87;;;12.30;99.90;;;;;;4967892;28;20213;-83
2022/10/29 02:30:18;;;;;;;11.20;8.33;;;12.30;99.90;;;;;;4972126;28;20224;-83
2022/10/29 02:32:45;;;;;;;8.10;6.90;;;12.30;99.90;;;;;;4952640;28;20201;-85
2022/10/29 02:35:13;;;;;;;9.57;5.47;;;12.30;99.90;;;;;;4951088;28;20212;-83
2022/10/29 02:37:40;;;;;;;10.67;5.10;;;12.30;99.90;;;;;;4971314;28;20645;-82
2022/10/29 02:40:08;;;;;;;9.17;5.33;;;12.40;99.90;;;;;;4976581;28;20216;-82
2022/10/29 02:42:35;;;;;;;6.53;5.10;;;12.40;99.90;;;;;;4950138;28;20213;-81
2022/10/29 02:45:02;;;;;;;8.00;5.33;;;12.40;99.90;;;;;;4963101;28;20204;-81
2022/10/29 02:47:28;;;;;;;10.37;5.33;;;12.40;99.90;;;;;;4956169;28;20221;-81
2022/10/29 02:49:55;;;;;;;7.40;6.23;;;12.50;99.90;;;;;;4972988;28;20289;-83
2022/10/29 02:52:24;;;;;;;9.00;8.10;;;12.50;99.90;;;;;;4971883;28;20221;-82
2022/10/29 02:54:51;;;;;;;7.07;5.40;;;12.60;99.90;;;;;;4968638;28;20196;-83
2022/10/29 02:57:17;;;;;;;8.83;7.93;;;12.60;99.90;;;;;;4947852;28;20309;-83
2022/10/29 02:59:44;;;;;;;6.90;5.27;;;12.60;99.90;;;;;;4968520;28;20252;-84
2022/10/29 03:02:11;;;;;;;7.50;6.50;;;12.70;99.90;;;;;;4956492;28;20632;-83
2022/10/29 03:04:38;;;;;;;6.77;4.67;;;12.60;99.90;;;;;;4957250;28;20205;-83
2022/10/29 03:07:05;;;;;;;6.93;6.37;;;12.60;99.90;;;;;;4952054;28;20198;-83
2022/10/29 03:09:33;;;;;;;7.43;5.47;;;12.70;99.90;;;;;;4953898;28;20252;-83
2022/10/29 03:12:00;;;;;;;11.57;6.03;;;12.70;99.90;;;;;;4955030;28;20295;-82
2022/10/29 03:14:27;;;;;;;6.17;4.73;;;12.70;99.90;;;;;;4968744;28;20263;-82
2022/10/29 03:16:54;;;;;;;8.07;5.47;;;12.70;99.90;;;;;;4952911;28;20204;-82
2022/10/29 03:19:20;;;;;;;8.40;6.17;;;12.60;99.90;;;;;;4973315;28;20745;-80
2022/10/29 03:21:47;;;;;;;9.63;6.00;;;12.60;99.90;;;;;;4949307;28;20570;-82
2022/10/29 03:24:14;;;;;;;10.33;7.17;;;12.60;99.90;;;;;;4948916;28;20265;-82
2022/10/29 03:26:42;;;;;;;7.77;6.03;;;12.60;99.90;;;;;;4963618;28;20197;-82
2022/10/29 03:29:09;;;;;;;9.77;6.53;;;12.60;99.90;;;;;;4953740;28;20236;-82
2022/10/29 03:31:36;;;;;;;6.90;5.87;;;12.60;99.90;;;;;;4967577;28;20209;-82
2022/10/29 03:34:03;;;;;;;7.40;6.03;;;12.60;99.90;;;;;;4952886;28;20205;-82
2022/10/29 03:36:30;;;;;;;7.37;6.47;;;12.60;99.90;;;;;;4950278;28;20244;-82
2022/10/29 03:38:56;;;;;;;10.20;6.27;;;12.60;99.90;;;;;;4949265;28;20252;-82
2022/10/29 03:41:23;;;;;;;8.67;5.77;;;12.70;99.90;;;;;;4966183;28;20192;-82
2022/10/29 03:43:52;;;;;;;7.53;6.83;;;12.70;99.90;;;;;;4970323;28;20240;-81
2022/10/29 03:46:18;;;;;;;7.73;6.20;;;12.60;99.90;;;;;;4949312;28;20206;-82
2022/10/29 03:48:48;;;;;;;8.80;5.80;;;12.70;99.90;;;;;;4951236;28;20748;-82
2022/10/29 03:51:15;;;;;;;6.00;4.70;;;12.70;99.90;;;;;;4953415;28;20205;-82
2022/10/29 03:53:42;;;;;;;6.90;5.30;;;12.70;99.90;;;;;;4972558;28;20205;-83
2022/10/29 03:56:09;;;;;;;7.60;5.80;;;12.60;99.90;;;;;;4949744;28;20670;-83
2022/10/29 03:58:36;;;;;;;8.03;6.30;;;12.60;99.90;;;;;;4957091;28;20711;-83
2022/10/29 04:01:06;;;;;;;9.57;8.57;;;12.60;99.90;;;;;;4952851;28;20194;-82
2022/10/29 04:03:35;;;;;;;8.10;6.43;;;12.70;99.90;;;;;;4953216;28;20201;-83
2022/10/29 04:06:08;;;;;;;7.57;6.80;;;12.70;99.90;;;;;;4960380;28;20193;-81
2022/10/29 04:08:35;;;;;;;10.07;6.60;;;12.70;99.90;;;;;;4960234;28;20697;-80
2022/10/29 04:11:01;;;;;;;8.87;8.00;;;12.60;99.90;;;;;;4957023;28;20208;-80
2022/10/29 04:13:28;;;;;;;8.07;5.60;;;12.70;99.90;;;;;;4969246;28;20289;-82
2022/10/29 04:15:56;;;;;;;9.10;7.50;;;12.80;99.90;;;;;;4977368;28;20765;-79
2022/10/29 04:18:25;;;;;;;11.13;7.93;;;12.80;99.90;;;;;;4974971;28;20232;-82
2022/10/29 04:20:53;;;;;;;8.83;6.63;;;12.80;99.90;;;;;;4954332;28;20263;-84
2022/10/29 04:23:20;;;;;;;10.97;6.53;;;12.70;99.90;;;;;;4950447;28;20293;-84
2022/10/29 04:25:55;;;;;;;9.13;7.07;;;12.80;99.90;;;;;;4950168;28;20222;-83
2022/10/29 04:28:22;;;;;;;11.17;8.23;;;12.70;99.90;;;;;;4950552;28;20588;-83
2022/10/29 04:30:49;;;;;;;7.97;5.83;;;12.70;99.90;;;;;;4970607;28;20198;-83
2022/10/29 04:33:16;;;;;;;6.57;5.37;;;12.70;99.90;;;;;;4951436;28;20206;-83
2022/10/29 04:35:44;;;;;;;6.93;5.10;;;12.60;99.90;;;;;;4951704;28;20201;-83
2022/10/29 04:38:12;;;;;;;8.37;5.70;;;12.60;99.90;;;;;;4975502;28;20205;-83
2022/10/29 04:40:39;;;;;;;12.40;6.40;;;12.70;99.90;;;;;;4952568;28;20209;-83
2022/10/29 04:43:06;;;;;;;9.43;6.60;;;12.60;99.90;;;;;;4952189;28;20194;-83
2022/10/29 04:45:33;;;;;;;7.80;7.00;;;12.60;99.90;;;;;;4966908;28;20202;-83
2022/10/29 04:48:00;;;;;;;9.10;8.20;;;12.60;99.90;;;;;;4955558;28;20218;-83
2022/10/29 04:50:27;;;;;;;7.67;6.93;;;12.60;99.90;;;;;;4957831;28;20264;-83
2022/10/29 04:52:59;;;;;;;10.27;7.97;;;12.60;99.90;;;;;;4954905;28;20202;-83
2022/10/29 04:55:26;;;;;;;12.23;8.20;;;12.60;99.90;;;;;;4955739;29;20206;-83
2022/10/29 04:57:53;;;;;;;11.20;7.47;;;12.60;99.90;;;;;;4949062;28;20198;-83
2022/10/29 05:00:21;;;;;;;9.13;8.23;;;12.60;99.90;;;;;;4973935;28;20205;-83
2022/10/29 05:02:49;;;;;;;9.43;8.43;;;12.60;99.90;;;;;;4952159;28;20715;-83
2022/10/29 05:05:16;;;;;;;9.23;8.43;;;12.60;99.90;;;;;;4975386;28;20293;-83
2022/10/29 05:07:43;;;;;;;9.53;8.63;;;12.60;99.90;;;;;;4955187;28;20198;-83
2022/10/29 05:10:11;;;;;;;9.80;8.90;;;12.50;99.90;;;;;;4951704;28;20292;-83
2022/10/29 05:12:38;;;;;;;13.67;9.97;;;12.50;99.90;;;;;;4970084;28;20198;-83
2022/10/29 05:15:06;;;;;;;8.40;7.63;;;12.40;99.90;;;;;;4973732;28;20617;-83
2022/10/29 05:17:37;;;;;;;10.30;9.40;;;12.40;99.90;;;;;;4952589;28;20206;-83
2022/10/29 05:20:05;;;;;;;14.40;13.20;;;12.30;99.90;;;;;;4951199;28;20666;-82
2022/10/29 05:22:31;;;;;;;9.03;8.13;;;12.30;99.90;;;;;;4947774;28;20205;-83
2022/10/29 05:24:58;;;;;;;10.80;9.40;;;12.20;99.90;;;;;;4972029;28;20201;-83
2022/10/29 05:27:26;;;;;;;12.53;11.27;;;12.20;99.90;;;;;;4951086;28;20201;-83
2022/10/29 05:29:53;;;;;;;10.87;8.97;;;12.10;99.90;;;;;;4952644;28;20645;-83
2022/10/29 05:32:20;;;;;;;9.23;7.67;;;12.10;99.90;;;;;;4956459;28;20205;-83
2022/10/29 05:34:47;;;;;;;14.77;13.37;;;12.00;99.90;;;;;;4954329;28;20255;-83
2022/10/29 05:37:14;;;;;;;14.57;13.07;;;11.90;99.90;;;;;;4969066;28;20201;-83
2022/10/29 05:39:40;;;;;;;14.63;13.50;;;11.80;99.90;;;;;;4946697;28;20226;-83
2022/10/29 05:42:07;;;;;;;15.13;13.73;;;11.80;99.90;;;;;;4969828;28;20202;-83
2022/10/29 05:44:35;;;;;;;14.93;13.53;;;11.80;99.90;;;;;;4968902;28;20207;-83
2022/10/29 05:47:03;;;;;;;16.17;13.47;;;11.70;99.90;;;;;;4951633;28;20194;-82
2022/10/29 05:49:30;;;;;;;14.73;13.40;;;11.60;99.90;;;;;;4955218;28;20226;-83
2022/10/29 05:51:57;;;;;;;16.57;14.07;;;11.50;99.90;;;;;;4950833;28;20276;-83
2022/10/29 05:54:24;;;;;;;15.60;14.20;;;11.50;99.90;;;;;;4958474;28;20252;-80
2022/10/29 05:56:50;;;;;;;16.67;15.07;;;11.50;99.90;;;;;;4975425;28;20215;-80
2022/10/29 05:59:17;;;;;;;16.30;14.60;;;11.50;99.90;;;;;;4958253;28;20475;-82
2022/10/29 06:01:46;;;;;;;15.37;14.20;;;11.50;99.90;;;;;;4975254;28;20204;-82
2022/10/29 06:04:12;;;;;;;14.47;13.20;;;11.50;99.90;;;;;;4971046;28;20205;-82
2022/10/29 06:06:39;;;;;;;14.60;13.30;;;11.50;99.90;;;;;;4968087;28;20717;-82
2022/10/29 06:09:06;;;;;;;16.30;13.83;;;11.50;99.90;;;;;;4948772;28;20276;-82
2022/10/29 06:11:33;;;;;;;15.40;14.00;;;11.40;99.90;;;;;;4971217;28;20213;-82
2022/10/29 06:14:00;;;;;;;15.07;13.77;;;11.40;99.90;;;;;;4953276;28;20206;-82
2022/10/29 06:16:27;;;;;;;15.50;13.90;;;11.40;99.90;;;;;;4949229;28;20202;-82
2022/10/29 06:18:55;;;;;;;15.03;13.53;;;11.40;99.90;;;;;;4962710;28;20277;-81
2022/10/29 06:21:22;;;;;;;15.00;13.73;;;11.40;99.90;;;;;;4957760;28;20898;-81
2022/10/29 06:23:52;;;;;;;15.23;14.03;;;11.40;99.90;;;;;;4975683;28;20234;-81
2022/10/29 06:26:19;;;;;;;15.27;14.03;;;11.40;99.90;;;;;;4951867;28;20224;-85
2022/10/29 06:28:46;;;;;;;16.00;14.60;;;11.50;99.90;;;;;;4952840;28;20221;-84
2022/10/29 06:31:13;;;;;;;15.17;13.77;;;11.50;99.90;;;;;;4950670;28;20209;-84
2022/10/29 06:33:40;;;;;;;15.00;13.70;;;11.50;99.90;;;;;;4956825;28;20264;-82
2022/10/29 06:36:08;;;;;;;16.33;14.83;;;11.50;99.90;;;;;;4975108;28;20202;-82
2022/10/29 06:38:35;;;;;;;16.03;14.67;;;11.50;99.90;;;;;;4949851;28;20586;-82
2022/10/29 06:41:02;;;;;;;15.77;14.47;;;11.50;99.90;;;;;;4954899;28;20200;-82
2022/10/29 06:43:29;;;;;;;17.93;16.23;;;11.60;99.90;;;;;;4947689;28;20206;-83
2022/10/29 06:45:56;;;;;;;16.50;15.03;;;11.60;99.90;;;;;;4973097;28;20205;-80
2022/10/29 06:48:23;;;;;;;15.67;14.23;;;11.70;99.90;;;;;;4974094;28;20271;-82
2022/10/29 06:50:50;;;;;;;17.23;15.63;;;11.70;99.90;;;;;;4951955;29;20198;-80
2022/10/29 06:53:18;;;;;;;17.07;15.67;;;11.70;99.90;;;;;;4972144;28;20613;-80
2022/10/29 06:55:45;;;;;;;15.83;14.33;;;11.80;99.90;;;;;;4967945;28;20277;-80
2022/10/29 06:58:14;;;;;;;15.17;14.00;;;11.80;99.90;;;;;;4955945;28;20209;-80
2022/10/29 07:00:42;;;;;;;14.97;13.70;;;11.90;99.90;;;;;;4974801;28;20344;-79
2022/10/29 07:03:11;;;;;;;16.10;14.73;;;11.90;99.90;;;;;;4959621;28;20211;-81
2022/10/29 07:05:38;;;;;;;17.07;15.27;;;12.00;99.90;;;;;;4972261;28;20663;-81
2022/10/29 07:08:05;;;;;;;14.70;13.50;;;12.10;99.90;;;;;;4957178;28;20204;-81
2022/10/29 07:10:34;;;;;;;15.60;14.23;;;12.30;99.90;;;;;;4950074;28;20236;-83
2022/10/29 07:13:01;;;;;;;13.90;12.90;;;12.40;99.90;;;;;;4954033;28;20206;-81
2022/10/29 07:15:29;;;;;;;13.90;12.87;;;12.50;99.90;;;;;;4965514;28;20196;-82
2022/10/29 07:17:57;;;;;;;13.03;11.77;;;12.60;99.90;;;;;;4955681;28;20205;-83
2022/10/29 07:20:24;;;;;;;8.37;7.07;;;12.80;99.90;;;;;;4954415;28;20206;-82
2022/10/29 07:22:51;;;;;;;14.70;13.40;;;12.90;99.90;;;;;;4953627;28;20198;-82
2022/10/29 07:25:18;;;;;;;14.53;13.43;;;13.10;99.90;;;;;;4974936;28;20205;-82
2022/10/29 07:27:46;;;;;;;12.70;11.50;;;13.30;99.90;;;;;;4971659;28;20621;-82
2022/10/29 07:30:13;;;;;;;14.43;13.30;;;13.40;99.90;;;;;;4949113;28;20329;-83
2022/10/29 07:32:40;;;;;;;13.73;12.63;;;13.50;99.90;;;;;;4975094;28;20237;-80
2022/10/29 07:35:07;;;;;;;14.23;13.13;;;13.70;99.90;;;;;;4970191;28;20201;-81
2022/10/29 07:37:34;;;;;;;13.17;12.17;;;13.80;99.90;;;;;;4956694;28;20689;-81
2022/10/29 07:40:01;;;;;;;9.43;8.43;;;13.90;99.90;;;;;;4952423;28;20223;-82
2022/10/29 07:42:28;;;;;;;10.83;9.93;;;14.10;99.90;;;;;;4954824;28;20201;-82
2022/10/29 07:44:56;;;;;;;11.77;10.57;;;14.20;99.90;;;;;;4957026;28;20206;-81
2022/10/29 07:47:23;;;;;;;12.77;11.87;;;14.40;99.90;;;;;;4953474;28;20201;-82
2022/10/29 07:49:50;;;;;;;12.60;11.43;;;14.60;99.90;;;;;;4951209;28;20261;-83
2022/10/29 07:52:17;;;;;;;10.67;9.57;;;14.90;99.90;;;;;;4954494;28;20782;-83
2022/10/29 07:54:44;;;;;;;7.23;6.30;;;15.30;99.90;;;;;;4958567;28;20584;-83
2022/10/29 07:57:11;;;;;;;11.37;10.57;;;15.60;99.90;;;;;;4957847;28;20210;-83
2022/10/29 07:59:37;;;;;;;13.47;12.23;;;15.90;99.90;;;;;;4950340;28;20278;-84
2022/10/29 08:02:06;;;;;;;13.97;12.70;;;16.30;99.90;;;;;;4949516;28;20202;-80
2022/10/29 08:04:32;;;;;;;13.27;12.30;;;16.60;99.90;;;;;;4971678;28;20194;-85
2022/10/29 08:06:59;;;;;;;11.00;9.90;;;16.90;99.90;;;;;;4950720;28;20682;-85
2022/10/29 08:09:26;;;;;;;11.32;10.23;;;17.10;99.90;;;;;;4952744;28;20449;-87
2022/10/29 08:11:53;;;;;;;10.70;9.70;;;17.40;99.90;;;;;;4971886;28;20464;-81
2022/10/29 08:14:20;;;;;;;7.33;5.33;;;17.70;99.90;;;;;;4952972;28;20229;-86
2022/10/29 08:16:47;;;;;;;8.80;8.10;;;17.80;99.90;;;;;;4955191;28;20198;-79
2022/10/29 08:19:15;;;;;;;9.70;8.77;;;18.00;99.90;;;;;;4969332;28;20243;-81
2022/10/29 08:21:42;;;;;;;8.93;5.97;;;18.20;99.90;;;;;;4972385;28;20202;-80
2022/10/29 08:24:10;;;;;;;12.80;11.70;;;18.30;99.90;;;;;;4972505;28;20206;-79
2022/10/29 08:26:37;;;;;;;12.00;10.87;;;18.40;99.90;;;;;;4953298;28;20206;-79
2022/10/29 08:29:04;;;;;;;10.30;8.50;;;18.60;99.90;;;;;;4973131;28;20216;-80
2022/10/29 08:31:31;;;;;;;7.53;5.33;;;18.70;99.90;;;;;;4973815;28;20683;-81
2022/10/29 08:33:57;;;;;;;13.13;10.00;;;19.00;99.90;;;;;;4958101;28;20207;-79
2022/10/29 08:36:26;;;;;;;10.60;9.53;;;19.10;99.90;;;;;;4970870;28;20200;-80
2022/10/29 08:38:52;;;;;;;9.97;6.20;;;19.20;99.90;;;;;;4950391;28;20223;-79
2022/10/29 08:41:35;;;;;;;12.70;10.20;;;19.40;99.90;;;;;;4953335;28;20240;-82
2022/10/29 08:44:26;;;;;;;12.40;6.87;;;19.60;99.90;;;;;;4959346;28;20200;-82
2022/10/29 08:46:56;;;;;;;7.47;5.47;;;19.70;99.90;;;;;;4957949;28;20252;-80
2022/10/29 08:49:31;;;;;;;9.87;8.97;;;19.80;99.90;;;;;;4972510;28;20217;-78
2022/10/29 08:52:05;;;;;;;11.23;9.67;;;20.00;99.90;;;;;;4955117;28;20689;-78
2022/10/29 08:54:35;;;;;;;9.70;8.80;;;20.20;99.90;;;;;;4956984;28;20201;-78
2022/10/29 08:57:07;;;;;;;11.00;6.37;;;20.30;99.90;;;;;;4975843;28;20268;-79
2022/10/29 08:59:40;;;;;;;8.40;4.90;;;20.30;99.90;;;;;;4972004;28;20230;-79
2022/10/29 09:02:15;;;;;;;7.97;5.10;;;20.40;99.90;;;;;;4973449;28;20198;-79
2022/10/29 09:04:42;;;;;;;14.60;9.17;;;20.50;99.90;;;;;;4970677;28;20197;-78
2022/10/29 09:07:25;;;;;;;10.90;10.00;;;20.50;99.90;;;;;;4971362;28;20245;-78
2022/10/29 09:09:59;;;;;;;11.77;10.73;;;20.60;99.90;;;;;;4971807;28;20224;-80
2022/10/29 09:12:41;;;;;;;10.90;9.80;;;20.80;99.90;;;;;;4959004;28;20198;-78
2022/10/29 09:15:38;;;;;;;10.67;9.07;;;20.70;99.90;;;;;;4972646;28;20205;-79
2022/10/29 09:18:25;;;;;;;8.53;6.20;;;20.70;99.90;;;;;;4973374;28;20194;-78
2022/10/29 09:20:56;;;;;;;11.83;10.90;;;20.60;99.90;;;;;;4956794;28;20210;-79
2022/10/29 09:23:45;;;;;;;9.80;8.80;;;20.70;99.90;;;;;;4975794;28;20950;-78
2022/10/29 09:26:17;;;;;;;8.90;5.97;;;20.80;99.90;;;;;;4969615;28;20579;-78
2022/10/29 09:28:54;;;;;;;11.10;10.30;;;20.80;99.90;;;;;;4957196;28;20761;-79
2022/10/29 09:31:29;;;;;;;11.97;9.90;;;20.80;99.90;;;;;;4974895;28;20204;-78
2022/10/29 09:34:01;;;;;;;11.83;10.83;;;20.80;99.90;;;;;;4971596;28;20506;-78
2022/10/29 09:36:30;;;;;;;11.70;10.60;;;20.80;99.90;;;;;;4967912;28;20209;-78
2022/10/29 09:39:01;;;;;;;6.00;4.17;;;20.90;99.90;;;;;;4972467;28;20241;-79
2022/10/29 09:41:34;;;;;;;7.30;4.53;;;20.90;99.90;;;;;;4968392;28;20190;-78
2022/10/29 09:44:06;;;;;;;6.37;4.50;;;21.00;99.90;;;;;;4967990;28;20276;-79
2022/10/29 09:46:39;;;;;;;9.18;8.23;;;20.90;99.90;;;;;;4967281;28;20434;-79
2022/10/29 09:49:18;;;;;;;10.23;9.43;;;20.80;99.90;;;;;;4975503;28;20276;-79
2022/10/29 09:51:52;;;;;;;11.23;10.30;;;20.70;99.90;;;;;;4968023;28;20201;-78
2022/10/29 09:54:21;;;;;;;8.43;7.63;;;20.60;99.90;;;;;;4963364;28;20198;-78
2022/10/29 09:56:49;;;;;;;9.33;8.40;;;20.50;99.90;;;;;;4962241;28;20201;-78
2022/10/29 09:59:24;;;;;;;9.60;8.53;;;20.40;99.90;;;;;;4972436;28;20225;-78
2022/10/29 10:01:51;;;;;;;9.17;8.37;;;20.40;99.90;;;;;;4975150;28;20201;-79
2022/10/29 10:04:26;;;;;;;10.97;9.87;;;20.30;99.90;;;;;;4957189;28;20202;-79
2022/10/29 10:07:07;;;;;;;7.20;4.13;;;20.30;99.90;;;;;;4969052;28;20237;-79
2022/10/29 10:09:55;;;;;;;6.13;4.30;;;20.20;99.90;;;;;;4966667;28;20419;-78
2022/10/29 10:12:24;;;;;;;6.80;3.97;;;20.20;99.90;;;;;;4973550;28;20657;-79
2022/10/29 10:15:04;;;;;;;10.10;9.20;;;20.20;99.90;;;;;;4953665;28;20202;-78
2022/10/29 10:17:54;;;;;;;6.43;3.90;;;20.20;99.90;;;;;;4963484;28;20194;-79
2022/10/29 10:20:38;;;;;;;5.93;3.50;;;20.20;99.90;;;;;;4954821;28;20205;-78
2022/10/29 10:23:26;;;;;;;5.37;4.13;;;20.20;99.90;;;;;;4966825;28;20201;-79
2022/10/29 10:25:55;;;;;;;6.70;4.00;;;20.20;99.90;;;;;;4966584;28;20197;-80
2022/10/29 10:28:24;;;;;;;7.07;4.10;;;20.30;99.90;;;;;;4949458;28;20234;-78
2022/10/29 10:31:12;;;;;;;8.10;3.83;;;20.30;99.90;;;;;;4952833;28;20222;-79
2022/10/29 10:33:50;;;;;;;6.37;4.07;;;20.30;99.90;;;;;;4966667;28;20202;-77
2022/10/29 10:36:20;;;;;;;6.73;4.10;;;20.30;99.90;;;;;;4956166;28;20240;-78
2022/10/29 10:38:49;;;;;;;5.10;4.03;;;20.30;99.90;;;;;;4969020;28;20214;-78
2022/10/29 10:41:24;;;;;;;7.23;5.70;;;20.40;99.90;;;;;;4948690;28;20201;-78
2022/10/29 10:43:51;;;;;;;6.57;4.73;;;20.40;99.90;;;;;;4962700;28;20217;-79
2022/10/29 10:46:24;;;;;;;5.33;3.50;;;20.40;99.90;;;;;;4953537;28;20212;-79
2022/10/29 10:48:58;;;;;;;4.90;3.57;;;20.40;99.90;;;;;;4969311;28;20222;-78
2022/10/29 10:51:28;;;;;;;6.67;4.20;;;20.40;99.90;;;;;;4965944;28;20263;-78
2022/10/29 10:53:56;;;;;;;5.53;3.77;;;20.40;99.90;;;;;;4967194;28;20710;-78
2022/10/29 10:56:24;;;;;;;7.23;3.53;;;20.40;99.90;;;;;;4954192;28;20221;-78
2022/10/29 10:59:04;;;;;;;5.87;3.77;;;20.40;99.90;;;;;;4966756;28;20222;-78
2022/10/29 11:01:37;;;;;;;6.17;3.97;;;20.40;99.90;;;;;;4965216;28;20615;-79
2022/10/29 11:04:14;;;;;;;4.20;3.53;;;20.40;99.90;;;;;;4973640;28;20241;-78
2022/10/29 11:06:44;;;;;;;3.87;3.47;;;20.50;99.90;;;;;;4967697;28;20278;-79
2022/10/29 11:09:20;;;;;;;4.70;3.63;;;20.50;99.90;;;;;;4948590;28;20284;-78
2022/10/29 11:11:55;;;;;;;4.30;3.43;;;20.50;99.90;;;;;;4948617;28;20276;-78
2022/10/29 11:14:27;;;;;;;7.53;6.93;;;20.60;99.90;;;;;;4948737;28;20329;-78
2022/10/29 11:16:57;;;;;;;7.43;6.83;;;20.60;99.90;;;;;;4967228;28;20191;-79
2022/10/29 11:19:30;;;;;;;7.67;6.97;;;20.70;99.90;;;;;;4970326;28;20222;-78
2022/10/29 11:22:05;;;;;;;7.70;7.00;;;20.70;99.90;;;;;;4966468;28;20289;-79
2022/10/29 11:24:41;;;;;;;6.17;4.00;;;20.80;99.90;;;;;;4966726;28;20209;-79
2022/10/29 11:27:20;;;;;;;7.10;6.40;;;20.80;99.90;;;;;;4953452;28;20571;-78
2022/10/29 11:29:55;;;;;;;6.70;6.10;;;20.90;99.90;;;;;;4968188;28;20205;-79
2022/10/29 11:32:29;;;;;;;6.90;6.30;;;20.90;99.90;;;;;;4948561;28;20252;-78
2022/10/29 11:35:04;;;;;;;7.60;7.00;;;21.00;99.90;;;;;;4948976;28;20674;-78
2022/10/29 11:37:37;;;;;;;8.80;6.73;;;21.00;99.90;;;;;;4966418;28;20203;-79
2022/10/29 11:40:11;;;;;;;7.60;6.90;;;21.10;99.90;;;;;;4948320;28;20226;-78
2022/10/29 11:42:39;;;;;;;7.47;6.83;;;21.10;99.90;;;;;;4948464;28;20194;-79
2022/10/29 11:45:13;;;;;;;6.93;6.33;;;21.20;99.90;;;;;;4965611;28;20257;-79
2022/10/29 11:48:02;;;;;;;8.30;7.60;;;21.20;99.90;;;;;;4963038;28;20727;-79
2022/10/29 11:50:36;;;;;;;6.07;4.07;;;21.20;99.90;;;;;;4952358;28;20214;-79
2022/10/29 11:53:18;;;;;;;3.97;3.43;;;21.30;99.90;;;;;;4953181;28;20733;-78
2022/10/29 11:55:56;;;;;;;4.43;3.60;;;21.30;99.90;;;;;;4966097;28;20210;-79
2022/10/29 11:58:30;;;;;;;4.70;4.27;;;21.30;99.90;;;;;;4969827;28;20237;-79
2022/10/29 12:01:03;;;;;;;5.43;4.80;;;21.30;99.90;;;;;;4950558;28;20197;-77
2022/10/29 12:03:59;;;;;;;4.17;3.60;;;21.30;99.90;;;;;;4965196;28;20198;-77
2022/10/29 12:06:35;;;;;;;3.93;3.53;;;21.30;99.90;;;;;;4928443;28;20213;-77
2022/10/29 12:09:26;;;;;;;9.27;8.57;;;21.40;99.90;;;;;;4959110;28;20232;-77
2022/10/29 12:12:00;;;;;;;3.60;3.23;;;21.50;99.90;;;;;;4970461;28;20217;-77
2022/10/29 12:14:35;;;;;;;3.83;3.10;;;21.60;99.90;;;;;;4952420;28;20266;-76
2022/10/29 12:17:09;;;;;;;3.50;3.20;;;21.60;99.90;;;;;;4965537;28;20659;-78
2022/10/29 12:19:46;;;;;;;7.80;7.20;;;21.70;99.90;;;;;;4968910;28;20225;-77
2022/10/29 12:22:26;;;;;;;6.10;5.50;;;21.70;99.90;;;;;;4951689;28;20264;-77
2022/10/29 12:25:06;;;;;;;4.13;3.57;;;21.70;99.90;;;;;;4973176;28;20198;-77
2022/10/29 12:27:39;;;;;;;3.70;3.40;;;21.70;99.90;;;;;;4951910;28;20206;-76
2022/10/29 12:30:11;;;;;;;5.97;5.47;;;21.80;99.90;;;;;;4976758;28;20245;-80
2022/10/29 12:32:45;;;;;;;6.50;5.90;;;21.90;99.90;;;;;;4949407;28;20616;-80
2022/10/29 12:35:19;;;;;;;5.10;4.20;;;21.90;99.90;;;;;;4953242;28;20199;-77
2022/10/29 12:38:00;;;;;;;5.47;5.00;;;21.90;99.90;;;;;;4953391;28;20201;-77
2022/10/29 12:40:30;;;;;;;5.17;3.50;;;22.00;99.90;;;;;;4972573;28;20202;-77
2022/10/29 12:43:03;;;;;;;3.80;3.30;;;22.10;99.90;;;;;;4952625;28;20209;-77
2022/10/29 12:45:39;;;;;;;4.63;4.23;;;22.10;99.90;;;;;;4967301;28;20209;-77
2022/10/29 12:48:12;;;;;;;5.10;3.43;;;22.20;99.90;;;;;;4973664;28;20629;-78
2022/10/29 12:50:46;;;;;;;3.97;3.37;;;22.20;99.90;;;;;;4963348;28;20206;-80
2022/10/29 12:53:23;;;;;;;5.30;3.20;;;22.20;99.90;;;;;;4976908;28;20197;-79
2022/10/29 12:55:51;;;;;;;5.63;4.00;;;22.20;99.90;;;;;;4974820;28;20202;-78